sensor_id;sensor_type;location;lat;lon;timestamp;temperature;humidity
24860;DHT22;12936;52.006;4.350;2023-04-03T00:00:24;7.50;99.90
24860;DHT22;12936;52.006;4.350;2023-04-03T00:02:54;7.50;99.90
24860;DHT22;12936;52.006;4.350;2023-04-03T00:05:45;7.40;99.90
24860;DHT22;12936;52.006;4.350;2023-04-03T00:08:14;7.40;99.90
24860;DHT22;12936;52.006;4.350;2023-04-03T00:10:48;7.40;99.90
24860;DHT22;12936;52.006;4.350;2023-04-03T00:13:16;7.40;99.90
24860;DHT22;12936;52.006;4.350;2023-04-03T00:16:06;7.30;99.90
24860;DHT22;12936;52.006;4.350;2023-04-03T00:18:34;7.30;99.90
24860;DHT22;12936;52.006;4.350;2023-04-03T00:21:05;7.20;99.90
24860;DHT22;12936;52.006;4.350;2023-04-03T00:23:33;7.30;99.90
24860;DHT22;12936;52.006;4.350;2023-04-03T00:26:16;7.30;99.90
24860;DHT22;12936;52.006;4.350;2023-04-03T00:28:45;7.20;99.90
24860;DHT22;12936;52.006;4.350;2023-04-03T00:31:15;7.20;99.90
24860;DHT22;12936;52.006;4.350;2023-04-03T00:34:03;7.20;99.90
24860;DHT22;12936;52.006;4.350;2023-04-03T00:36:32;7.20;99.90
24860;DHT22;12936;52.006;4.350;2023-04-03T00:39:00;7.20;99.90
24860;DHT22;12936;52.006;4.350;2023-04-03T00:41:31;7.20;99.90
24860;DHT22;12936;52.006;4.350;2023-04-03T00:44:21;7.20;99.90
24860;DHT22;12936;52.006;4.350;2023-04-03T00:46:49;7.10;99.90
24860;DHT22;12936;52.006;4.350;2023-04-03T00:49:18;7.20;99.90
24860;DHT22;12936;52.006;4.350;2023-04-03T00:51:47;7.10;99.90
24860;DHT22;12936;52.006;4.350;2023-04-03T00:54:17;7.10;99.90
24860;DHT22;12936;52.006;4.350;2023-04-03T00:56:48;7.10;99.90
24860;DHT22;12936;52.006;4.350;2023-04-03T00:59:23;7.00;99.90
24860;DHT22;12936;52.006;4.350;2023-04-03T01:01:55;7.00;99.90
24860;DHT22;12936;52.006;4.350;2023-04-03T01:04:28;7.00;99.90
24860;DHT22;12936;52.006;4.350;2023-04-03T01:06:58;7.00;99.90
24860;DHT22;12936;52.006;4.350;2023-04-03T01:09:30;7.00;99.90
24860;DHT22;12936;52.006;4.350;2023-04-03T01:12:14;7.00;99.90
24860;DHT22;12936;52.006;4.350;2023-04-03T01:14:43;7.00;99.90
24860;DHT22;12936;52.006;4.350;2023-04-03T01:17:29;6.90;99.90
24860;DHT22;12936;52.006;4.350;2023-04-03T01:20:31;6.90;99.90
24860;DHT22;12936;52.006;4.350;2023-04-03T01:23:20;6.90;99.90
24860;DHT22;12936;52.006;4.350;2023-04-03T01:25:54;6.90;99.90
24860;DHT22;12936;52.006;4.350;2023-04-03T01:28:44;6.90;99.90
24860;DHT22;12936;52.006;4.350;2023-04-03T01:31:18;6.90;99.90
24860;DHT22;12936;52.006;4.350;2023-04-03T01:33:50;6.80;99.90
24860;DHT22;12936;52.006;4.350;2023-04-03T01:36:20;6.80;99.90
24860;DHT22;12936;52.006;4.350;2023-04-03T01:38:48;6.80;99.90
24860;DHT22;12936;52.006;4.350;2023-04-03T01:41:17;6.80;99.90
24860;DHT22;12936;52.006;4.350;2023-04-03T01:43:48;6.80;99.90
24860;DHT22;12936;52.006;4.350;2023-04-03T01:46:17;6.80;99.90
24860;DHT22;12936;52.006;4.350;2023-04-03T01:48:49;6.70;99.90
24860;DHT22;12936;52.006;4.350;2023-04-03T01:51:18;6.70;99.90
24860;DHT22;12936;52.006;4.350;2023-04-03T01:53:46;6.70;99.90
24860;DHT22;12936;52.006;4.350;2023-04-03T01:56:15;6.70;99.90
24860;DHT22;12936;52.006;4.350;2023-04-03T01:58:43;6.70;99.90
24860;DHT22;12936;52.006;4.350;2023-04-03T02:01:12;6.70;99.90
24860;DHT22;12936;52.006;4.350;2023-04-03T02:03:41;6.60;99.90
24860;DHT22;12936;52.006;4.350;2023-04-03T02:06:13;6.60;99.90
24860;DHT22;12936;52.006;4.350;2023-04-03T02:08:41;6.60;99.90
24860;DHT22;12936;52.006;4.350;2023-04-03T02:11:09;6.60;99.90
24860;DHT22;12936;52.006;4.350;2023-04-03T02:13:38;6.60;99.90
24860;DHT22;12936;52.006;4.350;2023-04-03T02:16:08;6.60;99.90
24860;DHT22;12936;52.006;4.350;2023-04-03T02:18:39;6.50;99.90
24860;DHT22;12936;52.006;4.350;2023-04-03T02:21:07;6.50;99.90
24860;DHT22;12936;52.006;4.350;2023-04-03T02:23:36;6.50;99.90
24860;DHT22;12936;52.006;4.350;2023-04-03T02:26:06;6.50;99.90
24860;DHT22;12936;52.006;4.350;2023-04-03T02:28:36;6.50;99.90
24860;DHT22;12936;52.006;4.350;2023-04-03T02:31:05;6.50;99.90
24860;DHT22;12936;52.006;4.350;2023-04-03T02:33:34;6.40;99.90
24860;DHT22;12936;52.006;4.350;2023-04-03T02:36:05;6.40;99.90
24860;DHT22;12936;52.006;4.350;2023-04-03T02:38:36;6.40;99.90
24860;DHT22;12936;52.006;4.350;2023-04-03T02:41:06;6.40;99.90
24860;DHT22;12936;52.006;4.350;2023-04-03T02:43:36;6.40;99.90
24860;DHT22;12936;52.006;4.350;2023-04-03T02:46:06;6.40;99.90
24860;DHT22;12936;52.006;4.350;2023-04-03T02:48:34;6.40;99.90
24860;DHT22;12936;52.006;4.350;2023-04-03T02:51:04;6.40;99.90
24860;DHT22;12936;52.006;4.350;2023-04-03T02:53:33;6.30;99.90
24860;DHT22;12936;52.006;4.350;2023-04-03T02:56:05;6.40;99.90
24860;DHT22;12936;52.006;4.350;2023-04-03T02:58:33;6.30;99.90
24860;DHT22;12936;52.006;4.350;2023-04-03T03:01:22;6.30;99.90
24860;DHT22;12936;52.006;4.350;2023-04-03T03:03:52;6.30;99.90
24860;DHT22;12936;52.006;4.350;2023-04-03T03:06:20;6.30;99.90
24860;DHT22;12936;52.006;4.350;2023-04-03T03:08:49;6.20;99.90
24860;DHT22;12936;52.006;4.350;2023-04-03T03:11:18;6.30;99.90
24860;DHT22;12936;52.006;4.350;2023-04-03T03:13:48;6.30;99.90
24860;DHT22;12936;52.006;4.350;2023-04-03T03:16:20;6.20;99.90
24860;DHT22;12936;52.006;4.350;2023-04-03T03:18:49;6.20;99.90
24860;DHT22;12936;52.006;4.350;2023-04-03T03:21:19;6.20;99.90
24860;DHT22;12936;52.006;4.350;2023-04-03T03:23:48;6.20;99.90
24860;DHT22;12936;52.006;4.350;2023-04-03T03:26:21;6.10;99.90
24860;DHT22;12936;52.006;4.350;2023-04-03T03:28:50;6.10;99.90
24860;DHT22;12936;52.006;4.350;2023-04-03T03:31:22;6.10;99.90
24860;DHT22;12936;52.006;4.350;2023-04-03T03:33:50;6.10;99.90
24860;DHT22;12936;52.006;4.350;2023-04-03T03:36:18;6.10;99.90
24860;DHT22;12936;52.006;4.350;2023-04-03T03:38:47;6.10;99.90
24860;DHT22;12936;52.006;4.350;2023-04-03T03:41:16;6.10;99.90
24860;DHT22;12936;52.006;4.350;2023-04-03T03:43:48;6.10;99.90
24860;DHT22;12936;52.006;4.350;2023-04-03T03:46:16;6.00;99.90
24860;DHT22;12936;52.006;4.350;2023-04-03T03:48:44;6.00;99.90
24860;DHT22;12936;52.006;4.350;2023-04-03T03:51:13;6.00;99.90
24860;DHT22;12936;52.006;4.350;2023-04-03T03:53:41;6.00;99.90
24860;DHT22;12936;52.006;4.350;2023-04-03T03:56:10;6.00;99.90
24860;DHT22;12936;52.006;4.350;2023-04-03T03:58:38;5.90;99.90
24860;DHT22;12936;52.006;4.350;2023-04-03T04:01:08;5.90;99.90
24860;DHT22;12936;52.006;4.350;2023-04-03T04:03:37;5.90;99.90
24860;DHT22;12936;52.006;4.350;2023-04-03T04:06:05;5.90;99.90
24860;DHT22;12936;52.006;4.350;2023-04-03T04:08:34;5.90;99.90
24860;DHT22;12936;52.006;4.350;2023-04-03T04:11:02;5.80;99.90
24860;DHT22;12936;52.006;4.350;2023-04-03T04:13:30;5.70;99.90
24860;DHT22;12936;52.006;4.350;2023-04-03T04:15:59;5.80;99.90
24860;DHT22;12936;52.006;4.350;2023-04-03T04:18:31;5.80;99.90
24860;DHT22;12936;52.006;4.350;2023-04-03T04:20:59;5.70;99.90
24860;DHT22;12936;52.006;4.350;2023-04-03T04:23:28;5.70;99.90
24860;DHT22;12936;52.006;4.350;2023-04-03T04:25:56;5.70;99.90
24860;DHT22;12936;52.006;4.350;2023-04-03T04:28:24;5.70;99.90
24860;DHT22;12936;52.006;4.350;2023-04-03T04:30:53;5.70;99.90
24860;DHT22;12936;52.006;4.350;2023-04-03T04:33:21;5.70;99.90
24860;DHT22;12936;52.006;4.350;2023-04-03T04:35:51;5.60;99.90
24860;DHT22;12936;52.006;4.350;2023-04-03T04:38:23;5.60;99.90
24860;DHT22;12936;52.006;4.350;2023-04-03T04:40:51;5.60;99.90
24860;DHT22;12936;52.006;4.350;2023-04-03T04:43:21;5.60;99.90
24860;DHT22;12936;52.006;4.350;2023-04-03T04:46:00;5.60;99.90
24860;DHT22;12936;52.006;4.350;2023-04-03T04:48:28;5.60;99.90
24860;DHT22;12936;52.006;4.350;2023-04-03T04:51:00;5.50;99.90
24860;DHT22;12936;52.006;4.350;2023-04-03T04:53:49;5.50;99.90
24860;DHT22;12936;52.006;4.350;2023-04-03T04:56:18;5.50;99.90
24860;DHT22;12936;52.006;4.350;2023-04-03T04:58:47;5.50;99.90
24860;DHT22;12936;52.006;4.350;2023-04-03T05:01:15;5.50;99.90
24860;DHT22;12936;52.006;4.350;2023-04-03T05:03:43;5.50;99.90
24860;DHT22;12936;52.006;4.350;2023-04-03T05:06:13;5.50;99.90
24860;DHT22;12936;52.006;4.350;2023-04-03T05:08:41;5.40;99.90
24860;DHT22;12936;52.006;4.350;2023-04-03T05:11:09;5.40;99.90
24860;DHT22;12936;52.006;4.350;2023-04-03T05:13:37;5.40;99.90
24860;DHT22;12936;52.006;4.350;2023-04-03T05:16:05;5.40;99.90
24860;DHT22;12936;52.006;4.350;2023-04-03T05:18:34;5.40;99.90
24860;DHT22;12936;52.006;4.350;2023-04-03T05:21:03;5.40;99.90
24860;DHT22;12936;52.006;4.350;2023-04-03T05:23:32;5.40;99.90
24860;DHT22;12936;52.006;4.350;2023-04-03T05:26:00;5.30;99.90
24860;DHT22;12936;52.006;4.350;2023-04-03T05:28:29;5.30;99.90
24860;DHT22;12936;52.006;4.350;2023-04-03T05:30:58;5.30;99.90
24860;DHT22;12936;52.006;4.350;2023-04-03T05:33:26;5.30;99.90
24860;DHT22;12936;52.006;4.350;2023-04-03T05:35:55;5.30;99.90
24860;DHT22;12936;52.006;4.350;2023-04-03T05:38:23;5.30;99.90
24860;DHT22;12936;52.006;4.350;2023-04-03T05:40:52;5.30;99.90
24860;DHT22;12936;52.006;4.350;2023-04-03T05:43:20;5.30;99.90
24860;DHT22;12936;52.006;4.350;2023-04-03T05:45:48;5.30;99.90
24860;DHT22;12936;52.006;4.350;2023-04-03T05:48:16;5.30;99.90
24860;DHT22;12936;52.006;4.350;2023-04-03T05:50:45;5.30;99.90
24860;DHT22;12936;52.006;4.350;2023-04-03T05:53:17;5.30;99.90
24860;DHT22;12936;52.006;4.350;2023-04-03T05:55:46;5.30;99.90
24860;DHT22;12936;52.006;4.350;2023-04-03T05:58:16;5.30;99.90
24860;DHT22;12936;52.006;4.350;2023-04-03T06:00:44;5.30;99.90
24860;DHT22;12936;52.006;4.350;2023-04-03T06:03:15;5.30;99.90
24860;DHT22;12936;52.006;4.350;2023-04-03T06:05:43;5.30;99.90
24860;DHT22;12936;52.006;4.350;2023-04-03T06:08:13;5.20;99.90
24860;DHT22;12936;52.006;4.350;2023-04-03T06:10:41;5.30;99.90
24860;DHT22;12936;52.006;4.350;2023-04-03T06:13:09;5.30;99.90
24860;DHT22;12936;52.006;4.350;2023-04-03T06:15:38;5.30;99.90
24860;DHT22;12936;52.006;4.350;2023-04-03T06:18:07;5.30;99.90
24860;DHT22;12936;52.006;4.350;2023-04-03T06:20:36;5.30;99.90
24860;DHT22;12936;52.006;4.350;2023-04-03T06:23:04;5.30;99.90
24860;DHT22;12936;52.006;4.350;2023-04-03T06:25:34;5.30;99.90
24860;DHT22;12936;52.006;4.350;2023-04-03T06:28:02;5.40;99.90
24860;DHT22;12936;52.006;4.350;2023-04-03T06:30:30;5.30;99.90
24860;DHT22;12936;52.006;4.350;2023-04-03T06:33:00;5.40;99.90
24860;DHT22;12936;52.006;4.350;2023-04-03T06:35:28;5.40;99.90
24860;DHT22;12936;52.006;4.350;2023-04-03T06:37:57;5.40;99.90
24860;DHT22;12936;52.006;4.350;2023-04-03T06:40:26;5.40;99.90
24860;DHT22;12936;52.006;4.350;2023-04-03T06:42:54;5.50;99.90
24860;DHT22;12936;52.006;4.350;2023-04-03T06:45:24;5.50;99.90
24860;DHT22;12936;52.006;4.350;2023-04-03T06:47:52;5.50;99.90
24860;DHT22;12936;52.006;4.350;2023-04-03T06:50:23;5.50;99.90
24860;DHT22;12936;52.006;4.350;2023-04-03T06:52:52;5.60;99.90
24860;DHT22;12936;52.006;4.350;2023-04-03T06:55:20;5.60;99.90
24860;DHT22;12936;52.006;4.350;2023-04-03T06:57:48;5.60;99.90
24860;DHT22;12936;52.006;4.350;2023-04-03T07:00:17;5.70;99.90
24860;DHT22;12936;52.006;4.350;2023-04-03T07:02:46;5.70;99.90
24860;DHT22;12936;52.006;4.350;2023-04-03T07:05:14;5.70;99.90
24860;DHT22;12936;52.006;4.350;2023-04-03T07:07:43;5.70;99.90
24860;DHT22;12936;52.006;4.350;2023-04-03T07:10:11;5.70;99.90
24860;DHT22;12936;52.006;4.350;2023-04-03T07:12:39;5.70;99.90
24860;DHT22;12936;52.006;4.350;2023-04-03T07:15:08;5.70;99.90
24860;DHT22;12936;52.006;4.350;2023-04-03T07:17:37;5.70;99.90
24860;DHT22;12936;52.006;4.350;2023-04-03T07:20:06;5.70;99.90
24860;DHT22;12936;52.006;4.350;2023-04-03T07:22:35;5.70;99.90
24860;DHT22;12936;52.006;4.350;2023-04-03T07:25:05;5.80;99.90
24860;DHT22;12936;52.006;4.350;2023-04-03T07:27:34;5.80;99.90
24860;DHT22;12936;52.006;4.350;2023-04-03T07:30:02;5.80;99.90
24860;DHT22;12936;52.006;4.350;2023-04-03T07:32:30;5.80;99.90
24860;DHT22;12936;52.006;4.350;2023-04-03T07:34:58;5.90;99.90
24860;DHT22;12936;52.006;4.350;2023-04-03T07:37:28;5.90;99.90
24860;DHT22;12936;52.006;4.350;2023-04-03T07:39:56;5.90;99.90
24860;DHT22;12936;52.006;4.350;2023-04-03T07:42:27;5.90;99.90
24860;DHT22;12936;52.006;4.350;2023-04-03T07:44:55;5.90;99.90
24860;DHT22;12936;52.006;4.350;2023-04-03T07:47:23;6.00;99.90
24860;DHT22;12936;52.006;4.350;2023-04-03T07:49:51;6.00;99.90
24860;DHT22;12936;52.006;4.350;2023-04-03T07:52:20;6.00;99.90
24860;DHT22;12936;52.006;4.350;2023-04-03T07:54:48;6.10;99.90
24860;DHT22;12936;52.006;4.350;2023-04-03T07:57:16;6.10;99.90
24860;DHT22;12936;52.006;4.350;2023-04-03T07:59:46;6.10;99.90
24860;DHT22;12936;52.006;4.350;2023-04-03T08:02:14;6.10;99.90
24860;DHT22;12936;52.006;4.350;2023-04-03T08:04:42;6.00;99.90
24860;DHT22;12936;52.006;4.350;2023-04-03T08:07:10;6.20;99.90
24860;DHT22;12936;52.006;4.350;2023-04-03T08:09:38;6.20;99.90
24860;DHT22;12936;52.006;4.350;2023-04-03T08:12:06;6.20;99.90
24860;DHT22;12936;52.006;4.350;2023-04-03T08:14:34;6.30;99.90
24860;DHT22;12936;52.006;4.350;2023-04-03T08:17:03;6.20;99.90
24860;DHT22;12936;52.006;4.350;2023-04-03T08:19:32;6.20;99.90
24860;DHT22;12936;52.006;4.350;2023-04-03T08:22:00;6.20;99.90
24860;DHT22;12936;52.006;4.350;2023-04-03T08:24:29;6.30;99.90
24860;DHT22;12936;52.006;4.350;2023-04-03T08:26:57;6.40;99.90
24860;DHT22;12936;52.006;4.350;2023-04-03T08:29:26;6.40;99.90
24860;DHT22;12936;52.006;4.350;2023-04-03T08:31:54;6.40;99.90
24860;DHT22;12936;52.006;4.350;2023-04-03T08:34:23;6.40;99.90
24860;DHT22;12936;52.006;4.350;2023-04-03T08:36:51;6.50;99.90
24860;DHT22;12936;52.006;4.350;2023-04-03T08:39:19;6.50;99.90
24860;DHT22;12936;52.006;4.350;2023-04-03T08:41:47;6.60;99.90
24860;DHT22;12936;52.006;4.350;2023-04-03T08:44:22;6.50;99.90
24860;DHT22;12936;52.006;4.350;2023-04-03T08:47:01;6.60;99.90
24860;DHT22;12936;52.006;4.350;2023-04-03T08:49:33;6.70;99.90
24860;DHT22;12936;52.006;4.350;2023-04-03T08:52:04;6.70;99.90
24860;DHT22;12936;52.006;4.350;2023-04-03T08:54:49;6.70;99.90
24860;DHT22;12936;52.006;4.350;2023-04-03T08:57:23;6.70;99.90
24860;DHT22;12936;52.006;4.350;2023-04-03T08:59:52;6.90;99.90
24860;DHT22;12936;52.006;4.350;2023-04-03T09:02:27;6.80;99.90
24860;DHT22;12936;52.006;4.350;2023-04-03T09:04:58;6.90;99.90
24860;DHT22;12936;52.006;4.350;2023-04-03T09:07:33;6.90;99.90
24860;DHT22;12936;52.006;4.350;2023-04-03T09:10:03;7.00;99.90
24860;DHT22;12936;52.006;4.350;2023-04-03T09:12:34;7.10;99.90
24860;DHT22;12936;52.006;4.350;2023-04-03T09:15:11;7.10;99.90
24860;DHT22;12936;52.006;4.350;2023-04-03T09:17:59;7.20;99.90
24860;DHT22;12936;52.006;4.350;2023-04-03T09:20:38;7.10;99.90
24860;DHT22;12936;52.006;4.350;2023-04-03T09:23:16;7.20;99.90
24860;DHT22;12936;52.006;4.350;2023-04-03T09:25:46;7.20;99.90
24860;DHT22;12936;52.006;4.350;2023-04-03T09:28:14;7.20;99.90
24860;DHT22;12936;52.006;4.350;2023-04-03T09:30:42;7.30;99.90
24860;DHT22;12936;52.006;4.350;2023-04-03T09:33:11;7.30;99.90
24860;DHT22;12936;52.006;4.350;2023-04-03T09:35:49;7.40;99.90
24860;DHT22;12936;52.006;4.350;2023-04-03T09:38:19;7.40;99.90
24860;DHT22;12936;52.006;4.350;2023-04-03T09:40:49;7.40;99.90
24860;DHT22;12936;52.006;4.350;2023-04-03T09:43:25;7.30;99.90
24860;DHT22;12936;52.006;4.350;2023-04-03T09:45:55;7.30;99.90
24860;DHT22;12936;52.006;4.350;2023-04-03T09:48:25;7.40;99.90
24860;DHT22;12936;52.006;4.350;2023-04-03T09:51:00;7.50;99.90
24860;DHT22;12936;52.006;4.350;2023-04-03T09:53:32;7.50;99.90
24860;DHT22;12936;52.006;4.350;2023-04-03T09:56:04;7.50;99.90
24860;DHT22;12936;52.006;4.350;2023-04-03T09:58:44;7.50;99.90
24860;DHT22;12936;52.006;4.350;2023-04-03T10:01:27;7.60;99.90
24860;DHT22;12936;52.006;4.350;2023-04-03T10:04:08;7.60;99.90
24860;DHT22;12936;52.006;4.350;2023-04-03T10:06:39;7.70;99.90
24860;DHT22;12936;52.006;4.350;2023-04-03T10:09:22;7.70;99.90
24860;DHT22;12936;52.006;4.350;2023-04-03T10:11:58;7.80;99.90
24860;DHT22;12936;52.006;4.350;2023-04-03T10:14:28;7.70;99.90
24860;DHT22;12936;52.006;4.350;2023-04-03T10:17:02;7.80;99.90
24860;DHT22;12936;52.006;4.350;2023-04-03T10:19:40;7.70;99.90
24860;DHT22;12936;52.006;4.350;2023-04-03T10:22:18;7.80;99.90
24860;DHT22;12936;52.006;4.350;2023-04-03T10:24:52;7.80;99.90
24860;DHT22;12936;52.006;4.350;2023-04-03T10:27:29;7.80;99.90
24860;DHT22;12936;52.006;4.350;2023-04-03T10:30:08;7.90;99.90
24860;DHT22;12936;52.006;4.350;2023-04-03T10:32:48;7.90;99.90
24860;DHT22;12936;52.006;4.350;2023-04-03T10:35:29;8.00;99.90
24860;DHT22;12936;52.006;4.350;2023-04-03T10:38:09;7.90;99.90
24860;DHT22;12936;52.006;4.350;2023-04-03T10:40:46;8.00;99.90
24860;DHT22;12936;52.006;4.350;2023-04-03T10:43:19;8.00;99.90
24860;DHT22;12936;52.006;4.350;2023-04-03T10:45:55;8.10;99.90
24860;DHT22;12936;52.006;4.350;2023-04-03T10:48:38;8.10;99.90
24860;DHT22;12936;52.006;4.350;2023-04-03T10:51:16;8.20;99.90
24860;DHT22;12936;52.006;4.350;2023-04-03T10:53:54;8.20;99.90
24860;DHT22;12936;52.006;4.350;2023-04-03T10:56:31;8.20;99.90
24860;DHT22;12936;52.006;4.350;2023-04-03T10:59:11;8.30;99.90
24860;DHT22;12936;52.006;4.350;2023-04-03T11:01:43;8.30;99.90
24860;DHT22;12936;52.006;4.350;2023-04-03T11:04:12;8.40;99.90
24860;DHT22;12936;52.006;4.350;2023-04-03T11:06:46;8.30;99.90
24860;DHT22;12936;52.006;4.350;2023-04-03T11:09:22;8.30;99.90
24860;DHT22;12936;52.006;4.350;2023-04-03T11:11:55;8.40;99.90
24860;DHT22;12936;52.006;4.350;2023-04-03T11:14:27;8.40;99.90
24860;DHT22;12936;52.006;4.350;2023-04-03T11:17:04;8.50;99.90
24860;DHT22;12936;52.006;4.350;2023-04-03T11:19:36;8.50;99.90
24860;DHT22;12936;52.006;4.350;2023-04-03T11:22:11;8.60;99.90
24860;DHT22;12936;52.006;4.350;2023-04-03T11:24:54;8.60;99.90
24860;DHT22;12936;52.006;4.350;2023-04-03T11:27:25;8.70;99.90
24860;DHT22;12936;52.006;4.350;2023-04-03T11:29:58;8.70;99.90
24860;DHT22;12936;52.006;4.350;2023-04-03T11:32:55;8.80;99.90
24860;DHT22;12936;52.006;4.350;2023-04-03T11:35:27;8.80;99.90
24860;DHT22;12936;52.006;4.350;2023-04-03T11:37:56;8.90;99.90
24860;DHT22;12936;52.006;4.350;2023-04-03T11:40:29;8.90;99.90
24860;DHT22;12936;52.006;4.350;2023-04-03T11:43:05;9.00;99.90
24860;DHT22;12936;52.006;4.350;2023-04-03T11:45:36;9.00;99.90
24860;DHT22;12936;52.006;4.350;2023-04-03T11:48:48;9.00;99.90
24860;DHT22;12936;52.006;4.350;2023-04-03T11:50:58;9.00;99.90
24860;DHT22;12936;52.006;4.350;2023-04-03T11:53:31;9.00;99.90
24860;DHT22;12936;52.006;4.350;2023-04-03T11:59:15;9.10;99.90
24860;DHT22;12936;52.006;4.350;2023-04-03T12:01:49;9.10;99.90
24860;DHT22;12936;52.006;4.350;2023-04-03T12:04:20;9.20;99.90
24860;DHT22;12936;52.006;4.350;2023-04-03T12:07:13;9.20;99.90
24860;DHT22;12936;52.006;4.350;2023-04-03T12:13:00;9.20;99.90
24860;DHT22;12936;52.006;4.350;2023-04-03T12:15:50;9.20;99.90
24860;DHT22;12936;52.006;4.350;2023-04-03T12:18:56;9.20;99.90
24860;DHT22;12936;52.006;4.350;2023-04-03T12:22:09;9.30;99.90
24860;DHT22;12936;52.006;4.350;2023-04-03T12:24:39;9.30;99.90
24860;DHT22;12936;52.006;4.350;2023-04-03T12:27:38;9.30;99.90
24860;DHT22;12936;52.006;4.350;2023-04-03T12:30:26;9.30;99.90
24860;DHT22;12936;52.006;4.350;2023-04-03T12:33:29;9.30;99.90
24860;DHT22;12936;52.006;4.350;2023-04-03T12:36:26;9.40;99.90
24860;DHT22;12936;52.006;4.350;2023-04-03T12:39:23;9.40;99.90
24860;DHT22;12936;52.006;4.350;2023-04-03T12:42:25;9.40;99.90
24860;DHT22;12936;52.006;4.350;2023-04-03T12:45:19;9.40;99.90
24860;DHT22;12936;52.006;4.350;2023-04-03T12:48:12;9.50;99.90
24860;DHT22;12936;52.006;4.350;2023-04-03T12:50:43;9.50;99.90
24860;DHT22;12936;52.006;4.350;2023-04-03T12:53:16;9.60;99.90
24860;DHT22;12936;52.006;4.350;2023-04-03T12:55:45;9.60;99.90
24860;DHT22;12936;52.006;4.350;2023-04-03T12:58:15;9.60;99.90
24860;DHT22;12936;52.006;4.350;2023-04-03T13:00:44;9.70;99.90
24860;DHT22;12936;52.006;4.350;2023-04-03T13:03:24;9.80;99.90
24860;DHT22;12936;52.006;4.350;2023-04-03T13:05:55;9.80;99.90
24860;DHT22;12936;52.006;4.350;2023-04-03T13:08:24;10.00;99.90
24860;DHT22;12936;52.006;4.350;2023-04-03T13:10:56;10.00;99.90
24860;DHT22;12936;52.006;4.350;2023-04-03T13:13:25;10.10;99.90
24860;DHT22;12936;52.006;4.350;2023-04-03T13:15:54;10.00;99.90
24860;DHT22;12936;52.006;4.350;2023-04-03T13:18:28;10.10;99.90
24860;DHT22;12936;52.006;4.350;2023-04-03T13:21:02;10.10;99.90
24860;DHT22;12936;52.006;4.350;2023-04-03T13:23:31;10.20;99.90
24860;DHT22;12936;52.006;4.350;2023-04-03T13:25:59;10.30;99.90
24860;DHT22;12936;52.006;4.350;2023-04-03T13:28:31;10.40;99.90
24860;DHT22;12936;52.006;4.350;2023-04-03T13:31:06;10.40;99.90
24860;DHT22;12936;52.006;4.350;2023-04-03T13:33:53;10.50;99.90
24860;DHT22;12936;52.006;4.350;2023-04-03T13:36:24;10.60;99.90
24860;DHT22;12936;52.006;4.350;2023-04-03T13:39:03;10.70;99.90
24860;DHT22;12936;52.006;4.350;2023-04-03T13:41:33;10.80;99.90
24860;DHT22;12936;52.006;4.350;2023-04-03T13:44:24;10.90;99.90
24860;DHT22;12936;52.006;4.350;2023-04-03T13:46:54;11.00;99.90
24860;DHT22;12936;52.006;4.350;2023-04-03T13:49:30;11.20;99.90
24860;DHT22;12936;52.006;4.350;2023-04-03T13:51:59;11.40;99.90
24860;DHT22;12936;52.006;4.350;2023-04-03T13:54:37;11.70;99.90
24860;DHT22;12936;52.006;4.350;2023-04-03T13:57:12;11.90;99.90
24860;DHT22;12936;52.006;4.350;2023-04-03T13:59:41;12.20;99.90
24860;DHT22;12936;52.006;4.350;2023-04-03T14:02:17;12.50;99.90
24860;DHT22;12936;52.006;4.350;2023-04-03T14:04:51;12.70;99.90
24860;DHT22;12936;52.006;4.350;2023-04-03T14:07:22;12.90;99.90
24860;DHT22;12936;52.006;4.350;2023-04-03T14:09:51;13.10;99.90
24860;DHT22;12936;52.006;4.350;2023-04-03T14:12:24;13.40;99.90
24860;DHT22;12936;52.006;4.350;2023-04-03T14:14:58;13.50;99.90
24860;DHT22;12936;52.006;4.350;2023-04-03T14:17:28;13.80;99.90
24860;DHT22;12936;52.006;4.350;2023-04-03T14:19:58;14.10;99.90
24860;DHT22;12936;52.006;4.350;2023-04-03T14:22:30;14.40;99.90
24860;DHT22;12936;52.006;4.350;2023-04-03T14:24:58;14.60;99.90
24860;DHT22;12936;52.006;4.350;2023-04-03T14:27:29;14.80;99.90
24860;DHT22;12936;52.006;4.350;2023-04-03T14:29:59;15.10;99.90
24860;DHT22;12936;52.006;4.350;2023-04-03T14:32:27;15.20;99.90
24860;DHT22;12936;52.006;4.350;2023-04-03T14:34:58;15.30;99.90
24860;DHT22;12936;52.006;4.350;2023-04-03T14:37:29;15.50;99.90
24860;DHT22;12936;52.006;4.350;2023-04-03T14:39:58;15.70;99.90
24860;DHT22;12936;52.006;4.350;2023-04-03T14:42:32;16.00;99.90
24860;DHT22;12936;52.006;4.350;2023-04-03T14:45:04;16.20;99.90
24860;DHT22;12936;52.006;4.350;2023-04-03T14:47:33;16.30;99.90
24860;DHT22;12936;52.006;4.350;2023-04-03T14:50:08;16.50;99.90
24860;DHT22;12936;52.006;4.350;2023-04-03T14:52:40;16.60;99.90
24860;DHT22;12936;52.006;4.350;2023-04-03T14:55:08;16.90;99.90
24860;DHT22;12936;52.006;4.350;2023-04-03T14:57:38;17.00;99.90
24860;DHT22;12936;52.006;4.350;2023-04-03T15:00:11;17.10;99.90
24860;DHT22;12936;52.006;4.350;2023-04-03T15:02:40;17.30;99.90
24860;DHT22;12936;52.006;4.350;2023-04-03T15:05:11;17.50;99.90
24860;DHT22;12936;52.006;4.350;2023-04-03T15:07:41;17.60;99.90
24860;DHT22;12936;52.006;4.350;2023-04-03T15:10:18;17.80;99.90
24860;DHT22;12936;52.006;4.350;2023-04-03T15:12:48;17.90;99.90
24860;DHT22;12936;52.006;4.350;2023-04-03T15:15:20;18.10;99.90
24860;DHT22;12936;52.006;4.350;2023-04-03T15:17:51;18.20;99.90
24860;DHT22;12936;52.006;4.350;2023-04-03T15:20:24;18.30;99.90
24860;DHT22;12936;52.006;4.350;2023-04-03T15:22:53;18.40;99.90
24860;DHT22;12936;52.006;4.350;2023-04-03T15:25:23;18.60;99.90
24860;DHT22;12936;52.006;4.350;2023-04-03T15:27:52;18.70;99.90
24860;DHT22;12936;52.006;4.350;2023-04-03T15:30:21;18.70;99.90
24860;DHT22;12936;52.006;4.350;2023-04-03T15:32:49;18.70;99.90
24860;DHT22;12936;52.006;4.350;2023-04-03T15:35:18;18.80;99.90
24860;DHT22;12936;52.006;4.350;2023-04-03T15:37:47;18.80;99.90
24860;DHT22;12936;52.006;4.350;2023-04-03T15:40:16;18.80;99.90
24860;DHT22;12936;52.006;4.350;2023-04-03T15:42:44;18.80;99.90
24860;DHT22;12936;52.006;4.350;2023-04-03T15:45:12;18.70;99.90
24860;DHT22;12936;52.006;4.350;2023-04-03T15:47:41;18.60;99.90
24860;DHT22;12936;52.006;4.350;2023-04-03T15:50:12;18.60;99.90
24860;DHT22;12936;52.006;4.350;2023-04-03T15:52:40;18.60;99.90
24860;DHT22;12936;52.006;4.350;2023-04-03T15:55:10;18.60;99.90
24860;DHT22;12936;52.006;4.350;2023-04-03T15:57:38;18.60;99.90
24860;DHT22;12936;52.006;4.350;2023-04-03T16:00:12;18.50;99.90
24860;DHT22;12936;52.006;4.350;2023-04-03T16:02:41;18.20;99.90
24860;DHT22;12936;52.006;4.350;2023-04-03T16:05:09;17.80;99.90
24860;DHT22;12936;52.006;4.350;2023-04-03T16:07:38;17.30;99.90
24860;DHT22;12936;52.006;4.350;2023-04-03T16:10:10;16.90;99.90
24860;DHT22;12936;52.006;4.350;2023-04-03T16:12:38;16.30;99.90
24860;DHT22;12936;52.006;4.350;2023-04-03T16:15:07;15.90;99.90
24860;DHT22;12936;52.006;4.350;2023-04-03T16:17:38;15.40;99.90
24860;DHT22;12936;52.006;4.350;2023-04-03T16:20:09;15.10;99.90